Time;durP1;ratioP1;P1;durP2;ratioP2;P2;SDS_P1;SDS_P2;PMS_P1;PMS_P2;Temp;Humidity;BMP_temperature;BMP_pressure;BME280_temperature;BME280_humidity;BME280_pressure;Samples;Min_cycle;Max_cycle;Signal;HPM_P1;HPM_P2
2022/10/14 08:22:27;;;;;;;5.20;2.57;;;16.10;99.90;;;;;;6318434;22;21139;-71
2022/10/14 08:24:54;;;;;;;3.47;2.30;;;16.30;99.90;;;;;;6339166;22;20174;-73
2022/10/14 08:27:21;;;;;;;5.57;2.70;;;16.30;99.90;;;;;;6338978;22;20212;-72
2022/10/14 08:29:47;;;;;;;3.73;2.43;;;16.20;99.90;;;;;;6340064;22;20525;-72
2022/10/14 08:32:14;;;;;;;3.43;2.20;;;16.10;99.90;;;;;;6340088;22;20173;-71
2022/10/14 08:34:41;;;;;;;2.67;1.90;;;16.00;99.90;;;;;;6339678;22;20264;-71
2022/10/14 08:37:10;;;;;;;5.03;2.30;;;16.10;99.90;;;;;;6339555;22;20183;-71
2022/10/14 08:39:38;;;;;;;4.00;2.30;;;16.20;99.90;;;;;;6339472;22;20197;-71
2022/10/14 08:42:28;;;;;;;3.60;2.10;;;16.30;99.90;;;;;;6339778;22;20264;-71
2022/10/14 08:44:57;;;;;;;3.07;1.70;;;16.30;99.90;;;;;;6339978;22;20209;-71
2022/10/14 08:47:46;;;;;;;3.30;1.90;;;16.50;99.90;;;;;;6340054;22;20180;-71
2022/10/14 08:50:31;;;;;;;3.13;2.10;;;16.50;99.90;;;;;;6274500;22;20195;-72
2022/10/14 08:53:04;;;;;;;2.50;1.90;;;16.30;99.90;;;;;;6274794;22;20175;-72
2022/10/14 08:55:36;;;;;;;4.17;1.97;;;16.40;99.90;;;;;;6274707;22;20175;-72
2022/10/14 08:58:11;;;;;;;3.37;1.77;;;16.30;99.90;;;;;;6274799;22;20183;-71
2022/10/14 09:00:42;;;;;;;2.00;1.63;;;16.40;99.90;;;;;;6274397;22;20198;-72
2022/10/14 09:03:16;;;;;;;2.37;1.67;;;16.10;99.90;;;;;;6274007;22;20689;-72
2022/10/14 09:05:43;;;;;;;2.97;1.77;;;16.10;99.90;;;;;;6274354;22;20503;-70
2022/10/14 09:08:16;;;;;;;2.37;1.60;;;16.10;99.90;;;;;;6300105;22;20201;-70
2022/10/14 09:10:45;;;;;;;2.10;1.50;;;16.20;99.90;;;;;;6338380;22;20207;-70
2022/10/14 09:13:17;;;;;;;1.97;1.50;;;16.20;99.90;;;;;;6338758;22;20187;-70
2022/10/14 09:15:48;;;;;;;3.80;1.80;;;16.30;99.90;;;;;;6338488;22;20173;-70
2022/10/14 09:18:24;;;;;;;2.73;1.83;;;16.40;99.90;;;;;;6339403;22;20252;-71
2022/10/14 09:20:52;;;;;;;2.20;1.40;;;16.50;99.90;;;;;;6338995;22;20203;-71
2022/10/14 09:23:21;;;;;;;2.63;1.67;;;16.40;99.90;;;;;;6338745;22;20509;-71
2022/10/14 09:25:57;;;;;;;2.40;1.40;;;16.40;99.90;;;;;;6338475;22;20197;-71
2022/10/14 09:28:31;;;;;;;1.73;1.13;;;16.50;99.90;;;;;;6338901;22;20200;-71
2022/10/14 09:30:58;;;;;;;1.50;1.20;;;16.50;99.90;;;;;;6339201;22;20193;-71
2022/10/14 09:33:28;;;;;;;1.43;1.07;;;16.60;99.90;;;;;;6338484;22;20693;-71
2022/10/14 09:35:56;;;;;;;2.13;1.20;;;16.60;99.90;;;;;;6338664;22;20251;-71
2022/10/14 09:38:25;;;;;;;1.67;0.90;;;16.90;99.90;;;;;;6338545;22;20181;-71
2022/10/14 09:40:56;;;;;;;1.27;0.90;;;16.90;99.90;;;;;;6339496;22;20258;-71
2022/10/14 09:43:24;;;;;;;1.57;1.07;;;17.00;99.90;;;;;;6338954;22;20177;-71
2022/10/14 09:45:58;;;;;;;1.30;0.90;;;17.10;99.90;;;;;;6339198;22;20222;-71
2022/10/14 09:48:33;;;;;;;1.00;0.70;;;17.20;99.90;;;;;;6339120;22;20197;-71
2022/10/14 09:51:02;;;;;;;1.30;0.90;;;17.40;99.90;;;;;;6338564;22;20683;-70
2022/10/14 09:53:31;;;;;;;1.48;0.80;;;17.60;99.90;;;;;;6339003;22;20173;-71
2022/10/14 09:56:01;;;;;;;2.67;0.80;;;17.70;99.90;;;;;;6338857;22;20189;-71
2022/10/14 09:58:32;;;;;;;1.13;0.77;;;18.00;99.90;;;;;;6338576;22;20230;-71
2022/10/14 10:01:00;;;;;;;0.68;0.52;;;18.30;99.90;;;;;;6338554;22;20199;-71
2022/10/14 10:03:31;;;;;;;1.65;0.45;;;18.40;99.90;;;;;;6339114;22;20180;-71
2022/10/14 10:06:06;;;;;;;0.60;0.50;;;18.40;99.90;;;;;;6339429;22;20180;-71
2022/10/14 10:08:35;;;;;;;1.10;0.70;;;18.20;99.90;;;;;;6338876;22;20573;-71
2022/10/14 10:11:07;;;;;;;0.70;0.53;;;18.10;99.90;;;;;;6338069;22;20689;-71
2022/10/14 10:13:45;;;;;;;0.83;0.60;;;17.70;99.90;;;;;;6338883;22;20173;-71
2022/10/14 10:16:23;;;;;;;0.80;0.77;;;17.50;99.90;;;;;;6338853;22;20177;-71
2022/10/14 10:18:51;;;;;;;0.70;0.60;;;17.40;99.90;;;;;;6338465;22;20173;-71
2022/10/14 10:21:23;;;;;;;2.23;0.80;;;17.40;99.90;;;;;;6337938;22;20727;-71
2022/10/14 10:23:56;;;;;;;1.00;0.80;;;17.50;99.90;;;;;;6337949;22;20181;-71
2022/10/14 10:26:28;;;;;;;0.70;0.50;;;17.60;99.90;;;;;;6338475;22;20479;-71
2022/10/14 10:28:57;;;;;;;1.10;0.60;;;17.60;99.90;;;;;;6338219;22;20291;-71
2022/10/14 10:31:52;;;;;;;1.13;0.88;;;17.40;99.90;;;;;;6338294;22;20180;-71
2022/10/14 10:34:52;;;;;;;1.17;0.90;;;17.40;99.90;;;;;;6337819;22;20709;-71
2022/10/14 10:37:28;;;;;;;0.77;0.70;;;17.20;99.90;;;;;;6337954;22;20177;-71
2022/10/14 10:40:08;;;;;;;1.50;1.20;;;17.10;99.90;;;;;;6338450;22;20197;-71
2022/10/14 10:42:47;;;;;;;1.15;0.98;;;17.20;99.90;;;;;;6338576;22;20173;-71
2022/10/14 10:45:30;;;;;;;1.30;0.97;;;17.20;99.90;;;;;;6338986;22;20207;-71
2022/10/14 10:48:06;;;;;;;2.58;0.82;;;17.20;99.90;;;;;;6338446;22;20177;-71
2022/10/14 10:50:42;;;;;;;1.40;1.07;;;17.10;99.90;;;;;;6337217;22;20205;-71
2022/10/14 10:53:38;;;;;;;1.77;1.07;;;17.00;99.90;;;;;;6338459;22;20217;-71
2022/10/14 10:56:17;;;;;;;1.70;1.10;;;17.10;99.90;;;;;;6335107;22;20256;-71
2022/10/14 10:58:58;;;;;;;1.57;1.10;;;17.40;99.90;;;;;;6338413;22;20177;-71
2022/10/14 11:01:36;;;;;;;2.90;1.10;;;17.60;99.90;;;;;;6338573;22;20255;-71
2022/10/14 11:04:25;;;;;;;1.60;1.20;;;17.70;99.90;;;;;;6338066;22;20173;-71
2022/10/14 11:12:50;;;;;;;1.38;1.08;;;18.10;99.90;;;;;;6338046;22;20177;-71
2022/10/14 11:15:31;;;;;;;2.47;1.10;;;18.40;99.90;;;;;;6338192;22;20639;-71
2022/10/14 11:18:02;;;;;;;1.60;1.15;;;18.50;99.90;;;;;;6338052;22;20173;-71
2022/10/14 11:20:38;;;;;;;1.45;1.17;;;18.60;99.90;;;;;;6338178;22;20199;-71
2022/10/14 11:23:18;;;;;;;1.98;1.40;;;18.70;99.90;;;;;;6338024;22;20181;-71
2022/10/14 11:25:50;;;;;;;2.95;1.30;;;18.80;99.90;;;;;;6338273;22;20799;-71
2022/10/14 11:28:24;;;;;;;1.65;1.20;;;18.60;99.90;;;;;;6338531;22;20196;-71
2022/10/14 11:31:01;;;;;;;2.08;0.80;;;18.50;99.90;;;;;;6338591;22;20204;-71
2022/10/14 11:33:52;;;;;;;2.15;1.10;;;18.20;99.90;;;;;;6338315;22;20180;-71
2022/10/14 11:36:34;;;;;;;1.88;0.93;;;17.70;99.90;;;;;;6338001;22;20180;-71
2022/10/14 11:39:14;;;;;;;1.23;0.82;;;17.60;99.90;;;;;;6337375;22;20634;-71
2022/10/14 11:41:56;;;;;;;1.15;0.65;;;17.60;99.90;;;;;;6337791;22;20173;-71
2022/10/14 11:44:32;;;;;;;0.70;0.68;;;17.60;99.90;;;;;;6337746;22;20260;-71
2022/10/14 11:47:04;;;;;;;0.98;0.70;;;17.60;99.90;;;;;;6337735;22;20177;-71
2022/10/14 11:49:36;;;;;;;1.30;0.80;;;17.70;99.90;;;;;;6337781;22;20209;-71
2022/10/14 11:52:07;;;;;;;1.33;0.82;;;17.70;99.90;;;;;;6337594;22;20182;-71
2022/10/14 11:54:39;;;;;;;0.90;0.80;;;17.70;99.90;;;;;;6338559;22;20227;-72
2022/10/14 11:57:11;;;;;;;1.00;0.88;;;17.80;99.90;;;;;;6338593;22;20556;-71
2022/10/14 12:02:38;;;;;;;2.60;1.30;;;18.00;99.90;;;;;;6339135;22;20535;-71
2022/10/14 12:05:14;;;;;;;2.38;1.60;;;18.20;99.90;;;;;;6339572;22;20194;-73
2022/10/14 12:07:49;;;;;;;2.03;1.48;;;18.60;99.90;;;;;;6339411;22;20180;-71
2022/10/14 12:10:25;;;;;;;2.55;1.50;;;18.70;99.90;;;;;;6339366;22;20652;-72
2022/10/14 12:12:54;;;;;;;2.85;1.88;;;18.80;99.90;;;;;;6340282;22;20540;-72
2022/10/14 12:15:25;;;;;;;2.65;1.88;;;18.70;99.90;;;;;;6340009;22;20173;-71
2022/10/14 12:17:55;;;;;;;3.13;1.83;;;18.90;99.90;;;;;;6340114;22;20256;-71
2022/10/14 12:20:31;;;;;;;3.22;2.22;;;18.80;99.90;;;;;;6339737;22;20197;-71
2022/10/14 12:22:59;;;;;;;3.22;2.03;;;18.90;99.90;;;;;;6339448;22;20184;-72
2022/10/14 12:25:30;;;;;;;7.28;2.28;;;19.00;99.90;;;;;;6339374;22;20174;-71
2022/10/14 12:27:58;;;;;;;5.50;2.22;;;19.10;99.90;;;;;;6339308;22;20177;-72
2022/10/14 12:30:34;;;;;;;3.58;2.47;;;19.50;99.90;;;;;;6339534;22;20514;-71
2022/10/14 12:33:03;;;;;;;2.80;2.17;;;19.60;99.90;;;;;;6339469;22;20173;-72
2022/10/14 12:35:52;;;;;;;2.75;2.13;;;19.60;99.90;;;;;;6339512;22;20188;-72
2022/10/14 12:38:20;;;;;;;5.53;2.33;;;19.50;99.90;;;;;;6339412;22;20376;-71
2022/10/14 12:40:48;;;;;;;3.28;2.33;;;19.50;99.90;;;;;;6339358;22;20197;-71
2022/10/14 12:43:22;;;;;;;3.30;2.45;;;19.40;99.90;;;;;;6339007;22;20184;-72
2022/10/14 12:46:02;;;;;;;3.33;2.25;;;19.30;99.90;;;;;;6338981;22;20663;-71
2022/10/14 12:48:33;;;;;;;4.25;2.97;;;19.20;99.90;;;;;;6339188;22;20199;-71
2022/10/14 12:51:10;;;;;;;5.38;2.67;;;19.10;99.90;;;;;;6338391;22;20528;-71
2022/10/14 12:53:38;;;;;;;3.72;2.55;;;19.10;99.90;;;;;;6339042;22;20259;-72
2022/10/14 12:56:06;;;;;;;4.85;2.80;;;19.10;99.90;;;;;;6339837;22;20232;-71
2022/10/14 12:58:37;;;;;;;4.82;3.00;;;19.20;99.90;;;;;;6339307;22;20264;-72
2022/10/14 13:01:06;;;;;;;5.30;3.28;;;19.30;99.90;;;;;;6339015;22;20597;-71
2022/10/14 13:03:42;;;;;;;4.95;3.22;;;19.50;99.90;;;;;;6339307;22;20173;-71
2022/10/14 13:06:31;;;;;;;4.20;2.70;;;19.50;99.90;;;;;;6338798;22;20173;-72
2022/10/14 13:09:17;;;;;;;3.90;2.92;;;19.70;99.90;;;;;;6339031;22;20174;-72
2022/10/14 13:11:45;;;;;;;4.07;2.85;;;19.80;99.90;;;;;;6339330;22;20173;-71
2022/10/14 13:14:22;;;;;;;4.85;3.10;;;20.00;99.90;;;;;;6338865;22;20181;-71
2022/10/14 13:16:57;;;;;;;4.07;2.85;;;19.90;99.90;;;;;;6339088;22;20181;-71
2022/10/14 13:19:45;;;;;;;4.95;2.80;;;19.90;99.90;;;;;;6338873;22;20201;-71
2022/10/14 13:22:40;;;;;;;3.83;2.75;;;19.90;99.90;;;;;;6338884;22;20199;-71
2022/10/14 13:25:16;;;;;;;5.78;2.75;;;19.80;99.90;;;;;;6338314;22;20177;-71
2022/10/14 13:28:04;;;;;;;4.28;3.10;;;19.90;99.90;;;;;;6338175;22;20180;-72
2022/10/14 13:30:39;;;;;;;5.13;2.78;;;19.90;99.90;;;;;;6338827;22;20209;-72
2022/10/14 13:33:15;;;;;;;4.55;3.13;;;19.70;99.90;;;;;;6338557;22;20173;-71
2022/10/14 13:35:51;;;;;;;3.47;2.50;;;19.50;99.90;;;;;;6338876;22;20696;-71
2022/10/14 13:38:20;;;;;;;4.50;2.65;;;19.60;99.90;;;;;;6338866;22;20179;-72
2022/10/14 13:40:50;;;;;;;4.70;2.88;;;19.50;99.90;;;;;;6337960;22;20665;-72
2022/10/14 13:43:21;;;;;;;3.97;2.38;;;19.60;99.90;;;;;;6338712;22;20180;-71
2022/10/14 13:45:52;;;;;;;5.10;2.65;;;19.70;99.90;;;;;;6338954;22;20255;-71
2022/10/14 13:48:24;;;;;;;2.90;2.47;;;19.60;99.90;;;;;;6338697;22;20173;-71
2022/10/14 13:51:06;;;;;;;3.85;2.50;;;19.60;99.90;;;;;;6338945;22;20208;-71
2022/10/14 13:53:32;;;;;;;3.70;2.53;;;19.30;99.90;;;;;;6338754;22;20183;-72
2022/10/14 13:55:59;;;;;;;2.63;2.28;;;19.40;99.90;;;;;;6338835;22;20256;-72
2022/10/14 13:58:26;;;;;;;3.22;2.38;;;19.50;99.90;;;;;;6338633;22;20177;-71
2022/10/14 14:01:02;;;;;;;4.43;2.25;;;19.50;99.90;;;;;;6338829;22;20200;-71
2022/10/14 14:03:33;;;;;;;2.72;2.40;;;19.50;99.90;;;;;;6338710;22;20177;-71
2022/10/14 14:06:03;;;;;;;2.85;2.40;;;19.60;99.90;;;;;;6337885;22;20180;-72
2022/10/14 14:08:33;;;;;;;4.45;2.75;;;19.70;99.90;;;;;;6338279;22;20179;-73
2022/10/14 14:11:01;;;;;;;2.65;2.00;;;19.50;99.90;;;;;;6338711;22;20521;-70
2022/10/14 14:13:32;;;;;;;4.72;2.20;;;19.50;99.90;;;;;;6339151;22;20195;-72
2022/10/14 14:15:59;;;;;;;3.50;2.47;;;19.50;99.90;;;;;;6338952;22;20180;-71
2022/10/14 14:18:28;;;;;;;4.00;2.40;;;19.40;99.90;;;;;;6339087;22;20177;-71
2022/10/14 14:20:57;;;;;;;2.70;2.10;;;19.40;99.90;;;;;;6339238;22;20262;-71
2022/10/14 14:23:26;;;;;;;2.83;2.03;;;19.30;99.90;;;;;;6338775;22;20264;-71
2022/10/14 14:25:54;;;;;;;2.85;2.20;;;19.10;99.90;;;;;;6339373;22;20180;-71
2022/10/14 14:28:21;;;;;;;3.45;2.25;;;19.10;99.90;;;;;;6338980;22;20184;-71
2022/10/14 14:30:51;;;;;;;2.65;1.88;;;19.10;99.90;;;;;;6338728;22;20208;-71
2022/10/14 14:33:27;;;;;;;2.35;2.00;;;19.00;99.90;;;;;;6338499;22;20181;-71
2022/10/14 14:35:56;;;;;;;3.15;2.40;;;18.80;99.90;;;;;;6338759;22;20661;-71
2022/10/14 14:38:29;;;;;;;3.50;2.28;;;18.70;99.90;;;;;;6338707;22;20173;-71
2022/10/14 14:41:04;;;;;;;3.08;2.22;;;18.60;99.90;;;;;;6338805;22;20208;-71
2022/10/14 14:43:33;;;;;;;2.78;2.22;;;18.60;99.90;;;;;;6338348;22;20647;-71
2022/10/14 14:46:02;;;;;;;2.80;2.00;;;18.50;99.90;;;;;;6339017;22;20173;-71
2022/10/14 14:48:29;;;;;;;2.60;2.35;;;18.50;99.90;;;;;;6338756;22;20174;-71
2022/10/14 14:50:57;;;;;;;2.80;1.90;;;18.50;99.90;;;;;;6338808;22;20231;-71
2022/10/14 14:53:28;;;;;;;3.95;2.17;;;18.40;99.90;;;;;;6338593;22;20173;-71
2022/10/14 14:56:04;;;;;;;2.72;2.00;;;18.30;99.90;;;;;;6338301;22;20628;-71
2022/10/14 14:58:35;;;;;;;3.30;1.90;;;18.30;99.90;;;;;;6338646;22;20651;-71
2022/10/14 15:01:02;;;;;;;4.38;1.88;;;18.40;99.90;;;;;;6338347;22;20689;-71
2022/10/14 15:03:33;;;;;;;2.97;2.00;;;18.60;99.90;;;;;;6338742;22;20173;-72
2022/10/14 15:06:01;;;;;;;3.00;1.90;;;18.70;99.90;;;;;;6338685;22;20234;-71
2022/10/14 15:08:31;;;;;;;2.30;1.75;;;18.50;99.90;;;;;;6338132;22;20647;-71
2022/10/14 15:11:01;;;;;;;3.33;2.30;;;18.40;99.90;;;;;;6338969;22;20232;-71
2022/10/14 15:13:43;;;;;;;2.95;2.00;;;18.50;99.90;;;;;;6338183;22;20181;-71
2022/10/14 15:16:10;;;;;;;2.80;1.90;;;18.40;99.90;;;;;;6338653;22;20173;-71
2022/10/14 15:18:39;;;;;;;3.53;1.70;;;18.40;99.90;;;;;;6338626;22;20196;-71
2022/10/14 15:21:15;;;;;;;3.47;1.85;;;18.40;99.90;;;;;;6338909;22;20201;-71
2022/10/14 15:23:45;;;;;;;3.95;1.90;;;18.50;99.90;;;;;;6338300;22;20188;-71
2022/10/14 15:26:29;;;;;;;3.28;1.95;;;18.50;99.90;;;;;;6338859;22;20178;-71
2022/10/14 15:29:12;;;;;;;2.85;2.10;;;18.60;99.90;;;;;;6338578;22;20175;-71
2022/10/14 15:31:40;;;;;;;2.70;1.80;;;18.50;99.90;;;;;;6338821;22;20258;-71
2022/10/14 15:34:16;;;;;;;2.08;1.65;;;18.60;99.90;;;;;;6338822;22;20264;-71
2022/10/14 15:36:43;;;;;;;3.05;2.10;;;18.50;99.90;;;;;;6339287;22;20173;-71
2022/10/14 15:39:12;;;;;;;2.22;1.75;;;18.50;99.90;;;;;;6339627;22;20200;-71
2022/10/14 15:41:40;;;;;;;2.50;1.80;;;18.40;99.90;;;;;;6339283;22;20174;-71
2022/10/14 15:44:07;;;;;;;2.70;1.80;;;18.40;99.90;;;;;;6339840;22;20252;-71
2022/10/14 15:49:26;;;;;;;4.28;1.52;;;18.20;99.90;;;;;;6339663;22;20215;-71
2022/10/14 15:51:53;;;;;;;1.98;1.45;;;18.20;99.90;;;;;;6339608;22;20274;-71
2022/10/14 15:54:19;;;;;;;4.93;2.35;;;18.30;99.90;;;;;;6339486;22;20180;-71
2022/10/14 15:56:48;;;;;;;2.22;1.60;;;18.30;99.90;;;;;;6339421;22;20277;-70
2022/10/14 15:59:15;;;;;;;3.15;1.70;;;18.30;99.90;;;;;;6339413;22;20193;-71
2022/10/14 16:01:44;;;;;;;3.05;1.60;;;18.20;99.90;;;;;;6333862;22;20504;-73
2022/10/14 16:04:15;;;;;;;3.47;1.92;;;18.20;99.90;;;;;;6335690;22;20215;-74
2022/10/14 16:06:42;;;;;;;3.10;2.03;;;18.10;99.90;;;;;;6337597;22;20173;-74
2022/10/14 16:09:09;;;;;;;3.03;1.80;;;18.10;99.90;;;;;;6338135;22;20216;-74
2022/10/14 16:11:35;;;;;;;3.10;2.00;;;18.10;99.90;;;;;;6337968;22;20287;-74
2022/10/14 16:14:05;;;;;;;2.15;1.50;;;18.10;99.90;;;;;;6338204;22;20184;-74
2022/10/14 16:16:35;;;;;;;2.30;1.70;;;18.10;99.90;;;;;;6334648;22;20177;-73
2022/10/14 16:19:02;;;;;;;3.65;2.22;;;18.00;99.90;;;;;;6337886;22;20173;-73
2022/10/14 16:21:29;;;;;;;2.90;2.03;;;18.00;99.90;;;;;;6337324;22;20173;-76
2022/10/14 16:23:57;;;;;;;3.42;2.15;;;17.90;99.90;;;;;;6335213;22;20189;-76
2022/10/14 16:26:24;;;;;;;2.53;1.77;;;17.90;99.90;;;;;;6337224;22;20181;-80
2022/10/14 16:28:51;;;;;;;2.78;1.95;;;17.80;99.90;;;;;;6338155;22;20169;-74
2022/10/14 16:31:20;;;;;;;5.30;1.80;;;17.70;99.90;;;;;;6337131;22;20280;-78
2022/10/14 16:33:49;;;;;;;2.50;1.77;;;17.70;99.90;;;;;;6338051;22;20280;-75
2022/10/14 16:36:16;;;;;;;4.00;1.60;;;17.60;99.90;;;;;;6338270;22;20251;-76
2022/10/14 16:38:43;;;;;;;3.22;1.80;;;17.50;99.90;;;;;;6337601;22;20177;-75
2022/10/14 16:41:11;;;;;;;3.30;1.83;;;17.40;99.90;;;;;;6337722;22;20256;-73
2022/10/14 16:43:38;;;;;;;2.03;1.50;;;17.30;99.90;;;;;;6337368;22;20659;-74
2022/10/14 16:46:07;;;;;;;2.75;1.30;;;17.20;99.90;;;;;;6337435;22;20173;-72
2022/10/14 16:48:35;;;;;;;2.90;1.50;;;17.10;99.90;;;;;;6337113;22;20177;-74
2022/10/14 16:51:03;;;;;;;3.88;1.52;;;17.00;99.90;;;;;;6337513;22;20208;-76
2022/10/14 16:53:40;;;;;;;1.67;1.42;;;16.90;99.90;;;;;;6337227;22;20230;-74
2022/10/14 16:58:50;;;;;;;1.97;1.60;;;16.60;99.90;;;;;;6335677;22;20555;-71
2022/10/14 17:01:17;;;;;;;2.40;1.65;;;16.50;99.90;;;;;;6337854;22;20174;-70
2022/10/14 17:03:45;;;;;;;3.17;1.60;;;16.40;99.90;;;;;;6337962;22;20174;-71
2022/10/14 17:06:12;;;;;;;1.97;1.77;;;16.30;99.90;;;;;;6337678;22;20177;-74
2022/10/14 17:08:40;;;;;;;4.20;1.77;;;16.20;99.90;;;;;;6337606;22;20228;-73
2022/10/14 17:11:07;;;;;;;3.00;1.57;;;16.10;99.90;;;;;;6337445;22;20220;-75
2022/10/14 17:13:34;;;;;;;3.80;2.17;;;16.00;99.90;;;;;;6337518;22;20567;-74
2022/10/14 17:16:01;;;;;;;5.13;2.53;;;15.90;99.90;;;;;;6336994;22;20634;-77
2022/10/14 17:18:29;;;;;;;3.20;1.80;;;15.80;99.90;;;;;;6337618;22;20252;-75
2022/10/14 17:21:01;;;;;;;4.13;1.80;;;15.80;99.90;;;;;;6337464;22;20228;-72
2022/10/14 17:23:30;;;;;;;2.50;1.50;;;15.70;99.90;;;;;;6329337;22;20192;-77
2022/10/14 17:25:57;;;;;;;3.67;1.70;;;15.60;99.90;;;;;;6335815;22;20475;-74
2022/10/14 17:28:24;;;;;;;2.53;1.90;;;15.50;99.90;;;;;;6337770;22;20260;-72
2022/10/14 17:30:51;;;;;;;3.10;1.73;;;15.40;99.90;;;;;;6339191;22;20211;-72
2022/10/14 17:33:18;;;;;;;3.77;1.77;;;15.40;99.90;;;;;;6339199;22;20177;-73
2022/10/14 17:35:45;;;;;;;3.00;1.87;;;15.30;99.90;;;;;;6338512;22;20179;-72
2022/10/14 17:38:13;;;;;;;3.27;2.03;;;15.20;99.90;;;;;;6339016;22;20264;-73
2022/10/14 17:40:40;;;;;;;3.47;2.20;;;15.20;99.90;;;;;;6338480;22;20205;-73
2022/10/14 17:43:07;;;;;;;4.10;1.87;;;15.10;99.90;;;;;;6339040;22;20188;-73
2022/10/14 17:45:34;;;;;;;3.90;1.87;;;15.10;99.90;;;;;;6339452;22;20223;-73
2022/10/14 17:48:00;;;;;;;2.67;1.70;;;15.10;99.90;;;;;;6339211;22;20252;-72
2022/10/14 17:50:27;;;;;;;4.13;2.20;;;15.10;99.90;;;;;;6338905;22;20197;-73
2022/10/14 17:52:57;;;;;;;3.37;2.30;;;15.10;99.90;;;;;;6339133;22;20177;-72
2022/10/14 17:55:25;;;;;;;4.57;2.17;;;15.10;99.90;;;;;;6338912;22;20209;-72
2022/10/14 17:57:52;;;;;;;4.87;2.43;;;15.20;99.90;;;;;;6339246;22;20173;-73
2022/10/14 18:00:19;;;;;;;4.43;2.50;;;15.20;99.90;;;;;;6338846;22;20193;-72
2022/10/14 18:02:46;;;;;;;5.63;3.20;;;15.30;99.90;;;;;;6339084;22;20200;-72
2022/10/14 18:05:13;;;;;;;5.63;3.00;;;15.30;99.90;;;;;;6339308;22;20272;-72
2022/10/14 18:07:40;;;;;;;6.43;3.87;;;15.30;99.90;;;;;;6338648;22;20177;-72
2022/10/14 18:10:08;;;;;;;7.57;3.90;;;15.30;99.90;;;;;;6338321;22;20193;-72
2022/10/14 18:12:37;;;;;;;5.97;4.07;;;15.30;99.90;;;;;;6338251;22;20518;-72
2022/10/14 18:15:04;;;;;;;5.13;3.30;;;15.30;99.90;;;;;;6338196;22;20181;-72
2022/10/14 18:17:31;;;;;;;5.83;3.67;;;15.30;99.90;;;;;;6338367;22;20179;-73
2022/10/14 18:20:04;;;;;;;5.70;3.60;;;15.30;99.90;;;;;;6338179;22;20199;-73
2022/10/14 18:22:31;;;;;;;5.63;3.70;;;15.40;99.90;;;;;;6338778;22;20189;-72
2022/10/14 18:24:58;;;;;;;5.33;3.60;;;15.40;99.90;;;;;;6338736;22;20173;-73
2022/10/14 18:27:25;;;;;;;5.13;3.33;;;15.40;99.90;;;;;;6338870;22;20173;-73
2022/10/14 18:29:53;;;;;;;6.07;3.57;;;15.50;99.90;;;;;;6338500;22;20193;-73
2022/10/14 18:32:20;;;;;;;5.77;3.90;;;15.40;99.90;;;;;;6335745;22;20569;-74
2022/10/14 18:34:47;;;;;;;6.67;4.10;;;15.50;99.90;;;;;;6337708;22;20264;-72
2022/10/14 18:37:14;;;;;;;11.27;4.63;;;15.50;99.90;;;;;;6337898;22;20664;-72
2022/10/14 18:39:41;;;;;;;11.70;4.57;;;15.40;99.90;;;;;;6337186;22;20205;-72
2022/10/14 18:42:07;;;;;;;18.47;6.03;;;15.40;99.90;;;;;;6338348;22;20260;-72
2022/10/14 18:44:34;;;;;;;8.97;4.63;;;15.40;99.90;;;;;;6338492;22;20272;-73
2022/10/14 18:47:02;;;;;;;8.50;4.53;;;15.50;99.90;;;;;;6338129;22;20180;-72
2022/10/14 18:49:29;;;;;;;6.87;3.30;;;15.50;99.90;;;;;;6338071;22;20673;-72
2022/10/14 18:51:56;;;;;;;5.03;2.83;;;15.50;99.90;;;;;;6338619;22;20204;-72
2022/10/14 18:54:23;;;;;;;6.57;2.50;;;15.50;99.90;;;;;;6338149;22;20690;-72
2022/10/14 18:56:50;;;;;;;6.97;2.30;;;15.50;99.90;;;;;;6338501;22;20234;-72
2022/10/14 18:59:19;;;;;;;4.77;2.23;;;15.50;99.90;;;;;;6338604;22;20193;-72
2022/10/14 19:01:49;;;;;;;5.47;2.60;;;15.50;99.90;;;;;;6338674;22;20180;-72
2022/10/14 19:04:18;;;;;;;3.17;2.57;;;15.50;99.90;;;;;;6338507;22;20638;-72
2022/10/14 19:06:47;;;;;;;5.87;2.37;;;15.40;99.90;;;;;;6338949;22;20177;-72
2022/10/14 19:09:14;;;;;;;3.37;2.20;;;15.40;99.90;;;;;;6338584;22;20193;-72
2022/10/14 19:11:42;;;;;;;6.90;2.50;;;15.40;99.90;;;;;;6339747;22;20246;-72
2022/10/14 19:14:09;;;;;;;4.93;2.40;;;15.50;99.90;;;;;;6340986;22;20173;-72
2022/10/14 19:16:38;;;;;;;4.30;2.33;;;15.50;99.90;;;;;;6340723;22;20173;-72
2022/10/14 19:19:10;;;;;;;3.23;2.00;;;15.50;99.90;;;;;;6340351;22;20196;-73
2022/10/14 19:21:38;;;;;;;3.73;2.17;;;15.50;99.90;;;;;;6340411;22;20622;-72
2022/10/14 19:24:07;;;;;;;5.60;2.17;;;15.40;99.90;;;;;;6340190;22;20796;-72
2022/10/14 19:26:36;;;;;;;3.17;1.90;;;15.40;99.90;;;;;;6340795;22;20177;-73
2022/10/14 19:29:04;;;;;;;4.27;2.10;;;15.40;99.90;;;;;;6340419;22;20177;-73
2022/10/14 19:31:33;;;;;;;2.17;1.73;;;15.40;99.90;;;;;;6340729;22;20201;-73
2022/10/14 19:34:01;;;;;;;2.60;1.80;;;15.40;99.90;;;;;;6340385;22;20732;-73
2022/10/14 19:36:28;;;;;;;2.70;1.97;;;15.40;99.90;;;;;;6340183;22;20179;-73
2022/10/14 19:38:58;;;;;;;3.23;1.90;;;15.40;99.90;;;;;;6340005;22;20205;-72
2022/10/14 19:41:25;;;;;;;3.97;1.80;;;15.40;99.90;;;;;;6340309;22;20183;-73
2022/10/14 19:43:53;;;;;;;3.77;2.00;;;15.30;99.90;;;;;;6340505;22;20174;-73
2022/10/14 19:46:26;;;;;;;2.40;1.90;;;15.40;99.90;;;;;;6340116;22;20625;-73
2022/10/14 19:48:54;;;;;;;3.33;2.07;;;15.30;99.90;;;;;;6340257;22;20656;-73
2022/10/14 19:51:21;;;;;;;4.10;2.40;;;15.20;99.90;;;;;;6340078;22;20201;-72
2022/10/14 19:53:48;;;;;;;5.13;2.47;;;15.20;99.90;;;;;;6340221;22;20185;-72
2022/10/14 19:56:16;;;;;;;3.23;2.43;;;15.20;99.90;;;;;;6340449;22;20180;-72
2022/10/14 19:58:43;;;;;;;3.07;1.90;;;15.30;99.90;;;;;;6340073;22;20179;-72
2022/10/14 20:01:11;;;;;;;2.67;2.00;;;15.30;99.90;;;;;;6340102;22;20193;-73
2022/10/14 20:03:38;;;;;;;3.47;1.77;;;15.30;99.90;;;;;;6340071;22;20554;-72
2022/10/14 20:06:06;;;;;;;2.50;1.80;;;15.30;99.90;;;;;;6340379;22;20173;-73
2022/10/14 20:08:34;;;;;;;2.57;1.77;;;15.40;99.90;;;;;;6339975;22;20256;-72
2022/10/14 20:11:01;;;;;;;2.80;2.00;;;15.40;99.90;;;;;;6340088;22;20193;-73
2022/10/14 20:13:30;;;;;;;2.50;1.80;;;15.40;99.90;;;;;;6339855;22;20173;-73
2022/10/14 20:15:59;;;;;;;2.73;2.00;;;15.40;99.90;;;;;;6340243;22;20502;-73
2022/10/14 20:18:26;;;;;;;3.43;1.97;;;15.40;99.90;;;;;;6340085;22;20179;-73
2022/10/14 20:20:53;;;;;;;2.80;2.10;;;15.50;99.90;;;;;;6340384;22;20284;-72
2022/10/14 20:23:20;;;;;;;2.53;1.90;;;15.50;99.90;;;;;;6339697;22;20232;-72
2022/10/14 20:25:47;;;;;;;2.50;1.80;;;15.60;99.90;;;;;;6340096;22;20173;-72
2022/10/14 20:28:18;;;;;;;2.60;1.87;;;15.60;99.90;;;;;;6339902;22;20173;-73
2022/10/14 20:30:47;;;;;;;2.93;2.00;;;15.60;99.90;;;;;;6339891;22;20242;-73
2022/10/14 20:33:14;;;;;;;2.93;1.80;;;15.60;99.90;;;;;;6340278;22;20205;-72
2022/10/14 20:35:41;;;;;;;3.10;1.93;;;15.60;99.90;;;;;;6339916;22;20179;-73
2022/10/14 20:38:08;;;;;;;3.13;1.90;;;15.70;99.90;;;;;;6339535;22;20617;-73
2022/10/14 20:40:35;;;;;;;4.23;1.97;;;15.70;99.90;;;;;;6340028;22;20275;-72
2022/10/14 20:43:02;;;;;;;2.53;2.07;;;15.80;99.90;;;;;;6340022;22;20173;-73
2022/10/14 20:45:29;;;;;;;2.37;2.00;;;15.80;99.90;;;;;;6339696;22;20173;-73
2022/10/14 20:47:57;;;;;;;2.70;2.07;;;15.80;99.90;;;;;;6339730;22;20173;-73
2022/10/14 20:50:23;;;;;;;2.77;2.03;;;15.80;99.90;;;;;;6339930;22;20280;-73
2022/10/14 20:52:50;;;;;;;3.23;2.37;;;15.80;99.90;;;;;;6339749;22;20284;-73
2022/10/14 20:55:17;;;;;;;5.33;2.77;;;15.80;99.90;;;;;;6339706;22;20248;-73
2022/10/14 20:57:45;;;;;;;3.77;2.70;;;15.70;99.90;;;;;;6339696;22;20179;-73
2022/10/14 21:00:12;;;;;;;4.43;3.20;;;15.70;99.90;;;;;;6339694;22;20197;-73
2022/10/14 21:02:39;;;;;;;4.30;2.87;;;15.70;99.90;;;;;;6339475;22;20184;-73
2022/10/14 21:05:08;;;;;;;4.60;3.33;;;15.70;99.90;;;;;;6339300;22;20184;-73
2022/10/14 21:07:35;;;;;;;5.33;3.37;;;15.70;99.90;;;;;;6338951;22;20184;-73
2022/10/14 21:10:02;;;;;;;5.47;3.70;;;15.80;99.90;;;;;;6338369;22;20280;-73
2022/10/14 21:12:29;;;;;;;4.03;3.00;;;15.90;99.90;;;;;;6337853;22;20197;-73
2022/10/14 21:14:55;;;;;;;4.90;3.23;;;15.90;99.90;;;;;;6337830;22;20195;-73
2022/10/14 21:17:22;;;;;;;4.97;3.03;;;15.90;99.90;;;;;;6338998;22;20173;-73
2022/10/14 21:19:49;;;;;;;4.53;3.20;;;15.90;99.90;;;;;;6338067;22;20248;-73
2022/10/14 21:22:17;;;;;;;4.93;3.47;;;15.90;99.90;;;;;;6337888;22;20264;-73
2022/10/14 21:24:44;;;;;;;5.40;3.50;;;15.90;99.90;;;;;;6338551;22;20189;-73
2022/10/14 21:27:11;;;;;;;5.30;3.63;;;15.90;99.90;;;;;;6338644;22;20188;-72
2022/10/14 21:29:38;;;;;;;6.87;4.50;;;15.90;99.90;;;;;;6338473;22;20224;-73
2022/10/14 21:32:05;;;;;;;6.27;4.00;;;15.90;99.90;;;;;;6338295;22;20211;-73
2022/10/14 21:34:32;;;;;;;9.20;6.37;;;16.00;99.90;;;;;;6338858;22;20257;-74
2022/10/14 21:36:58;;;;;;;6.67;4.50;;;16.00;99.90;;;;;;6344905;22;20276;-74
2022/10/14 21:39:27;;;;;;;7.33;4.07;;;15.80;99.90;;;;;;6344446;22;20248;-73